sensor_id;sensor_type;location;lat;lon;timestamp;pressure;altitude;pressure_sealevel;temperature;humidity
32197;BME280;18697;42.770;23.400;2023-03-14T00:01:16;95874.88;;;5.56;56.74
32197;BME280;18697;42.770;23.400;2023-03-14T00:03:41;95872.06;;;5.59;56.53
32197;BME280;18697;42.770;23.400;2023-03-14T00:06:08;95862.09;;;5.46;56.38
32197;BME280;18697;42.770;23.400;2023-03-14T00:08:34;95878.22;;;5.27;57.25
32197;BME280;18697;42.770;23.400;2023-03-14T00:11:11;95865.94;;;5.12;57.85
32197;BME280;18697;42.770;23.400;2023-03-14T00:13:37;95861.13;;;5.16;57.93
32197;BME280;18697;42.770;23.400;2023-03-14T00:16:09;95865.16;;;5.12;57.70
32197;BME280;18697;42.770;23.400;2023-03-14T00:18:35;95862.25;;;4.99;57.03
32197;BME280;18697;42.770;23.400;2023-03-14T00:21:01;95847.91;;;4.88;57.66
32197;BME280;18697;42.770;23.400;2023-03-14T00:23:28;95849.09;;;4.87;57.68
32197;BME280;18697;42.770;23.400;2023-03-14T00:26:01;95844.44;;;4.84;58.56
32197;BME280;18697;42.770;23.400;2023-03-14T00:28:27;95836.59;;;4.82;58.59
32197;BME280;18697;42.770;23.400;2023-03-14T00:30:53;95838.59;;;4.82;57.76
32197;BME280;18697;42.770;23.400;2023-03-14T00:33:18;95834.63;;;4.83;57.14
32197;BME280;18697;42.770;23.400;2023-03-14T00:35:52;95837.88;;;4.78;56.96
32197;BME280;18697;42.770;23.400;2023-03-14T00:38:17;95836.06;;;4.91;56.30
32197;BME280;18697;42.770;23.400;2023-03-14T00:40:43;95827.47;;;5.09;56.17
32197;BME280;18697;42.770;23.400;2023-03-14T00:43:08;95821.28;;;5.21;55.45
32197;BME280;18697;42.770;23.400;2023-03-14T00:45:33;95816.69;;;5.34;55.16
32197;BME280;18697;42.770;23.400;2023-03-14T00:48:00;95825.25;;;5.40;53.69
32197;BME280;18697;42.770;23.400;2023-03-14T00:50:25;95825.53;;;5.45;53.07
32197;BME280;18697;42.770;23.400;2023-03-14T00:52:50;95817.03;;;5.36;51.89
32197;BME280;18697;42.770;23.400;2023-03-14T00:55:16;95819.78;;;5.20;52.26
32197;BME280;18697;42.770;23.400;2023-03-14T00:57:41;95815.16;;;4.93;52.54
32197;BME280;18697;42.770;23.400;2023-03-14T01:00:07;95821.75;;;5.00;52.42
32197;BME280;18697;42.770;23.400;2023-03-14T01:02:36;95804.50;;;5.15;52.67
32197;BME280;18697;42.770;23.400;2023-03-14T01:05:01;95806.59;;;5.27;51.82
32197;BME280;18697;42.770;23.400;2023-03-14T01:07:26;95795.16;;;5.29;51.23
32197;BME280;18697;42.770;23.400;2023-03-14T01:09:52;95810.50;;;4.90;51.71
32197;BME280;18697;42.770;23.400;2023-03-14T01:12:18;95808.19;;;4.89;52.07
32197;BME280;18697;42.770;23.400;2023-03-14T01:14:43;95799.72;;;5.00;51.96
32197;BME280;18697;42.770;23.400;2023-03-14T01:17:08;95796.25;;;5.15;52.25
32197;BME280;18697;42.770;23.400;2023-03-14T01:19:34;95794.09;;;5.23;53.63
32197;BME280;18697;42.770;23.400;2023-03-14T01:21:59;95787.69;;;5.29;53.70
32197;BME280;18697;42.770;23.400;2023-03-14T01:24:24;95782.28;;;5.42;54.70
32197;BME280;18697;42.770;23.400;2023-03-14T01:26:50;95787.81;;;5.42;54.76
32197;BME280;18697;42.770;23.400;2023-03-14T01:29:15;95781.25;;;5.36;54.73
32197;BME280;18697;42.770;23.400;2023-03-14T01:31:41;95792.84;;;5.27;55.80
32197;BME280;18697;42.770;23.400;2023-03-14T01:34:06;95788.78;;;5.16;55.52
32197;BME280;18697;42.770;23.400;2023-03-14T01:36:31;95788.28;;;5.01;55.35
32197;BME280;18697;42.770;23.400;2023-03-14T01:38:57;95776.69;;;4.90;55.38
32197;BME280;18697;42.770;23.400;2023-03-14T01:41:24;95784.81;;;4.77;55.88
32197;BME280;18697;42.770;23.400;2023-03-14T01:43:50;95784.81;;;4.77;55.79
32197;BME280;18697;42.770;23.400;2023-03-14T01:46:24;95779.88;;;4.88;55.65
32197;BME280;18697;42.770;23.400;2023-03-14T01:49:01;95776.63;;;4.93;55.71
32197;BME280;18697;42.770;23.400;2023-03-14T01:51:34;95778.81;;;5.02;55.48
32197;BME280;18697;42.770;23.400;2023-03-14T01:54:28;95765.53;;;4.77;55.45
32197;BME280;18697;42.770;23.400;2023-03-14T01:57:20;95769.00;;;4.61;56.68
32197;BME280;18697;42.770;23.400;2023-03-14T01:59:50;95774.19;;;4.56;57.34
32197;BME280;18697;42.770;23.400;2023-03-14T02:02:17;95771.22;;;4.47;57.36
32197;BME280;18697;42.770;23.400;2023-03-14T02:04:42;95768.16;;;4.45;57.90
32197;BME280;18697;42.770;23.400;2023-03-14T02:07:18;95763.63;;;4.54;57.65
32197;BME280;18697;42.770;23.400;2023-03-14T02:09:45;95767.44;;;4.60;57.61
32197;BME280;18697;42.770;23.400;2023-03-14T02:12:14;95770.25;;;4.57;57.29
32197;BME280;18697;42.770;23.400;2023-03-14T02:14:40;95771.75;;;4.61;57.10
32197;BME280;18697;42.770;23.400;2023-03-14T02:17:07;95763.00;;;4.67;57.30
32197;BME280;18697;42.770;23.400;2023-03-14T02:19:46;95758.91;;;4.75;56.84
32197;BME280;18697;42.770;23.400;2023-03-14T02:22:15;95758.41;;;4.80;56.87
32197;BME280;18697;42.770;23.400;2023-03-14T02:27:32;95758.56;;;4.73;54.77
32197;BME280;18697;42.770;23.400;2023-03-14T02:32:34;95755.72;;;4.56;54.18
32197;BME280;18697;42.770;23.400;2023-03-14T02:35:05;95749.81;;;4.58;54.41
32197;BME280;18697;42.770;23.400;2023-03-14T02:37:36;95751.34;;;4.59;54.03
32197;BME280;18697;42.770;23.400;2023-03-14T02:40:03;95766.03;;;4.72;54.06
32197;BME280;18697;42.770;23.400;2023-03-14T02:42:30;95758.72;;;4.85;54.70
32197;BME280;18697;42.770;23.400;2023-03-14T02:47:30;95768.94;;;4.85;53.69
32197;BME280;18697;42.770;23.400;2023-03-14T02:50:06;95763.50;;;4.81;53.90
32197;BME280;18697;42.770;23.400;2023-03-14T02:52:33;95775.28;;;4.82;54.55
32197;BME280;18697;42.770;23.400;2023-03-14T02:54:58;95772.03;;;4.87;55.45
32197;BME280;18697;42.770;23.400;2023-03-14T02:57:23;95765.13;;;4.79;55.75
32197;BME280;18697;42.770;23.400;2023-03-14T02:59:49;95773.81;;;4.77;56.27
32197;BME280;18697;42.770;23.400;2023-03-14T03:02:14;95770.34;;;4.73;56.47
32197;BME280;18697;42.770;23.400;2023-03-14T03:04:39;95781.00;;;4.71;56.69
32197;BME280;18697;42.770;23.400;2023-03-14T03:07:05;95770.97;;;4.61;56.75
32197;BME280;18697;42.770;23.400;2023-03-14T03:09:30;95772.16;;;4.60;56.54
32197;BME280;18697;42.770;23.400;2023-03-14T03:11:55;95782.25;;;4.67;56.51
32197;BME280;18697;42.770;23.400;2023-03-14T03:14:21;95764.63;;;4.64;56.19
32197;BME280;18697;42.770;23.400;2023-03-14T03:16:46;95765.41;;;4.65;56.40
32197;BME280;18697;42.770;23.400;2023-03-14T03:19:12;95772.66;;;4.55;55.73
32197;BME280;18697;42.770;23.400;2023-03-14T03:21:39;95761.94;;;4.41;55.94
32197;BME280;18697;42.770;23.400;2023-03-14T03:24:04;95766.72;;;4.37;56.25
32197;BME280;18697;42.770;23.400;2023-03-14T03:26:30;95769.47;;;4.37;56.31
32197;BME280;18697;42.770;23.400;2023-03-14T03:28:55;95761.81;;;4.24;55.94
32197;BME280;18697;42.770;23.400;2023-03-14T03:31:20;95765.41;;;4.21;55.70
32197;BME280;18697;42.770;23.400;2023-03-14T03:33:46;95766.06;;;4.29;56.24
32197;BME280;18697;42.770;23.400;2023-03-14T03:36:12;95768.69;;;4.36;56.30
32197;BME280;18697;42.770;23.400;2023-03-14T03:38:37;95758.59;;;4.49;55.94
32197;BME280;18697;42.770;23.400;2023-03-14T03:41:05;95757.56;;;4.43;56.02
32197;BME280;18697;42.770;23.400;2023-03-14T03:43:31;95753.94;;;4.46;56.28
32197;BME280;18697;42.770;23.400;2023-03-14T03:45:57;95762.19;;;4.46;55.55
32197;BME280;18697;42.770;23.400;2023-03-14T03:48:22;95763.47;;;4.42;55.34
32197;BME280;18697;42.770;23.400;2023-03-14T03:50:47;95770.72;;;4.32;55.55
32197;BME280;18697;42.770;23.400;2023-03-14T03:53:13;95776.00;;;4.23;55.24
32197;BME280;18697;42.770;23.400;2023-03-14T03:55:41;95776.88;;;4.16;55.15
32197;BME280;18697;42.770;23.400;2023-03-14T03:58:07;95776.28;;;4.05;55.27
32197;BME280;18697;42.770;23.400;2023-03-14T04:00:33;95782.78;;;3.91;56.19
32197;BME280;18697;42.770;23.400;2023-03-14T04:02:58;95775.31;;;3.92;56.32
32197;BME280;18697;42.770;23.400;2023-03-14T04:05:24;95771.69;;;3.99;56.21
32197;BME280;18697;42.770;23.400;2023-03-14T04:07:50;95770.53;;;3.96;56.68
32197;BME280;18697;42.770;23.400;2023-03-14T04:10:15;95766.66;;;3.93;56.43
32197;BME280;18697;42.770;23.400;2023-03-14T04:12:40;95768.28;;;3.91;56.61
32197;BME280;18697;42.770;23.400;2023-03-14T04:15:06;95763.72;;;3.81;56.85
32197;BME280;18697;42.770;23.400;2023-03-14T04:17:32;95761.84;;;3.74;56.84
32197;BME280;18697;42.770;23.400;2023-03-14T04:19:57;95758.47;;;3.67;57.38
32197;BME280;18697;42.770;23.400;2023-03-14T04:22:23;95768.38;;;3.60;57.45
32197;BME280;18697;42.770;23.400;2023-03-14T04:24:48;95750.94;;;3.71;57.56
32197;BME280;18697;42.770;23.400;2023-03-14T04:27:13;95751.13;;;3.83;57.42
32197;BME280;18697;42.770;23.400;2023-03-14T04:29:40;95757.75;;;3.86;57.05
32197;BME280;18697;42.770;23.400;2023-03-14T04:32:05;95748.66;;;3.89;57.25
32197;BME280;18697;42.770;23.400;2023-03-14T04:34:31;95749.50;;;3.86;56.93
32197;BME280;18697;42.770;23.400;2023-03-14T04:36:57;95752.00;;;3.77;56.46
32197;BME280;18697;42.770;23.400;2023-03-14T04:39:43;95743.69;;;3.57;55.62
32197;BME280;18697;42.770;23.400;2023-03-14T04:42:09;95737.44;;;3.56;55.82
32197;BME280;18697;42.770;23.400;2023-03-14T04:44:34;95735.03;;;3.58;55.87
32197;BME280;18697;42.770;23.400;2023-03-14T04:46:59;95737.22;;;3.71;55.44
32197;BME280;18697;42.770;23.400;2023-03-14T04:49:25;95734.31;;;3.78;55.47
32197;BME280;18697;42.770;23.400;2023-03-14T04:51:50;95733.84;;;3.83;55.72
32197;BME280;18697;42.770;23.400;2023-03-14T04:54:17;95733.78;;;3.86;56.05
32197;BME280;18697;42.770;23.400;2023-03-14T04:56:42;95728.66;;;3.88;56.01
32197;BME280;18697;42.770;23.400;2023-03-14T04:59:08;95727.88;;;3.88;55.58
32197;BME280;18697;42.770;23.400;2023-03-14T05:01:33;95735.66;;;3.93;56.16
32197;BME280;18697;42.770;23.400;2023-03-14T05:03:59;95735.66;;;3.93;56.41
32197;BME280;18697;42.770;23.400;2023-03-14T05:06:25;95730.28;;;3.86;57.36
32197;BME280;18697;42.770;23.400;2023-03-14T05:08:50;95729.06;;;3.87;57.50
32197;BME280;18697;42.770;23.400;2023-03-14T05:11:15;95721.59;;;3.87;58.13
32197;BME280;18697;42.770;23.400;2023-03-14T05:13:41;95730.28;;;3.86;58.51
32197;BME280;18697;42.770;23.400;2023-03-14T05:16:08;95734.94;;;3.89;59.90
32197;BME280;18697;42.770;23.400;2023-03-14T05:18:34;95725.91;;;3.88;60.01
32197;BME280;18697;42.770;23.400;2023-03-14T05:20:59;95726.63;;;3.92;59.29
32197;BME280;18697;42.770;23.400;2023-03-14T05:23:25;95722.03;;;3.86;59.02
32197;BME280;18697;42.770;23.400;2023-03-14T05:25:50;95714.31;;;3.77;58.53
32197;BME280;18697;42.770;23.400;2023-03-14T05:28:16;95707.22;;;3.56;59.47
32197;BME280;18697;42.770;23.400;2023-03-14T05:30:41;95712.50;;;3.71;59.78
32197;BME280;18697;42.770;23.400;2023-03-14T05:33:07;95711.88;;;3.83;59.64
32197;BME280;18697;42.770;23.400;2023-03-14T05:35:33;95715.22;;;3.94;59.42
32197;BME280;18697;42.770;23.400;2023-03-14T05:37:59;95713.91;;;3.79;58.42
32197;BME280;18697;42.770;23.400;2023-03-14T05:40:25;95712.94;;;3.89;58.79
32197;BME280;18697;42.770;23.400;2023-03-14T05:42:50;95725.44;;;4.17;58.23
32197;BME280;18697;42.770;23.400;2023-03-14T05:45:16;95732.94;;;4.36;58.39
32197;BME280;18697;42.770;23.400;2023-03-14T05:47:41;95720.09;;;4.49;58.82
32197;BME280;18697;42.770;23.400;2023-03-14T05:50:07;95717.78;;;4.68;59.63
32197;BME280;18697;42.770;23.400;2023-03-14T05:52:32;95720.09;;;4.69;57.46
32197;BME280;18697;42.770;23.400;2023-03-14T05:54:58;95724.13;;;4.84;58.95
32197;BME280;18697;42.770;23.400;2023-03-14T05:57:23;95730.75;;;5.07;60.00
32197;BME280;18697;42.770;23.400;2023-03-14T05:59:48;95727.88;;;5.30;60.09
32197;BME280;18697;42.770;23.400;2023-03-14T06:02:14;95719.81;;;5.55;59.31
32197;BME280;18697;42.770;23.400;2023-03-14T06:04:39;95718.13;;;5.78;59.23
32197;BME280;18697;42.770;23.400;2023-03-14T06:07:05;95714.84;;;5.99;59.28
32197;BME280;18697;42.770;23.400;2023-03-14T06:09:30;95716.69;;;6.35;58.20
32197;BME280;18697;42.770;23.400;2023-03-14T06:11:55;95720.44;;;6.57;56.97
32197;BME280;18697;42.770;23.400;2023-03-14T06:14:21;95714.72;;;6.64;56.37
32197;BME280;18697;42.770;23.400;2023-03-14T06:16:46;95706.44;;;6.64;55.57
32197;BME280;18697;42.770;23.400;2023-03-14T06:19:14;95714.16;;;6.69;55.47
32197;BME280;18697;42.770;23.400;2023-03-14T06:21:39;95717.88;;;6.91;55.26
32197;BME280;18697;42.770;23.400;2023-03-14T06:24:05;95715.78;;;7.37;54.54
32197;BME280;18697;42.770;23.400;2023-03-14T06:26:30;95722.72;;;7.42;54.39
32197;BME280;18697;42.770;23.400;2023-03-14T06:28:56;95715.66;;;7.66;54.50
32197;BME280;18697;42.770;23.400;2023-03-14T06:31:21;95716.41;;;7.79;53.74
32197;BME280;18697;42.770;23.400;2023-03-14T06:33:46;95714.59;;;8.11;52.09
32197;BME280;18697;42.770;23.400;2023-03-14T06:36:12;95718.63;;;8.44;51.58
32197;BME280;18697;42.770;23.400;2023-03-14T06:38:37;95714.59;;;8.58;49.66
32197;BME280;18697;42.770;23.400;2023-03-14T06:41:06;95702.44;;;8.77;49.40
32197;BME280;18697;42.770;23.400;2023-03-14T06:43:32;95691.63;;;9.23;48.47
32197;BME280;18697;42.770;23.400;2023-03-14T06:45:57;95693.56;;;9.35;47.87
32197;BME280;18697;42.770;23.400;2023-03-14T06:48:23;95700.94;;;9.69;47.48
32197;BME280;18697;42.770;23.400;2023-03-14T06:50:49;95699.09;;;9.75;47.44
32197;BME280;18697;42.770;23.400;2023-03-14T06:53:14;95697.91;;;9.85;42.88
32197;BME280;18697;42.770;23.400;2023-03-14T06:55:40;95690.38;;;9.95;42.89
32197;BME280;18697;42.770;23.400;2023-03-14T06:58:05;95687.56;;;10.26;42.44
32197;BME280;18697;42.770;23.400;2023-03-14T07:00:33;95678.47;;;10.35;42.03
32197;BME280;18697;42.770;23.400;2023-03-14T07:02:59;95675.94;;;10.18;41.82
32197;BME280;18697;42.770;23.400;2023-03-14T07:05:24;95680.31;;;9.79;42.43
32197;BME280;18697;42.770;23.400;2023-03-14T07:07:49;95678.13;;;9.65;42.84
32197;BME280;18697;42.770;23.400;2023-03-14T07:10:15;95666.78;;;9.10;43.42
32197;BME280;18697;42.770;23.400;2023-03-14T07:12:40;95669.88;;;9.43;43.56
32197;BME280;18697;42.770;23.400;2023-03-14T07:15:06;95677.00;;;9.53;43.55
32197;BME280;18697;42.770;23.400;2023-03-14T07:17:32;95669.31;;;9.58;42.64
32197;BME280;18697;42.770;23.400;2023-03-14T07:19:57;95670.22;;;10.04;43.21
32197;BME280;18697;42.770;23.400;2023-03-14T07:22:24;95667.75;;;8.95;43.53
32197;BME280;18697;42.770;23.400;2023-03-14T07:24:49;95657.88;;;8.28;45.38
32197;BME280;18697;42.770;23.400;2023-03-14T07:27:15;95662.31;;;8.60;45.87
32197;BME280;18697;42.770;23.400;2023-03-14T07:29:40;95655.50;;;8.74;45.37
32197;BME280;18697;42.770;23.400;2023-03-14T07:32:05;95655.59;;;8.92;44.56
32197;BME280;18697;42.770;23.400;2023-03-14T07:34:31;95663.31;;;9.59;43.66
32197;BME280;18697;42.770;23.400;2023-03-14T07:36:56;95652.47;;;9.92;43.23
32197;BME280;18697;42.770;23.400;2023-03-14T07:39:22;95656.63;;;9.97;44.16
32197;BME280;18697;42.770;23.400;2023-03-14T07:41:47;95648.84;;;10.32;41.03
32197;BME280;18697;42.770;23.400;2023-03-14T07:44:12;95649.47;;;10.27;41.66
32197;BME280;18697;42.770;23.400;2023-03-14T07:46:38;95644.06;;;10.23;42.95
32197;BME280;18697;42.770;23.400;2023-03-14T07:49:03;95652.25;;;10.36;41.49
32197;BME280;18697;42.770;23.400;2023-03-14T07:51:28;95635.50;;;11.00;41.35
32197;BME280;18697;42.770;23.400;2023-03-14T07:53:54;95637.53;;;10.99;39.73
32197;BME280;18697;42.770;23.400;2023-03-14T07:56:19;95648.03;;;10.95;40.60
32197;BME280;18697;42.770;23.400;2023-03-14T07:58:44;95627.53;;;10.56;41.91
32197;BME280;18697;42.770;23.400;2023-03-14T08:01:10;95626.34;;;11.17;41.01
32197;BME280;18697;42.770;23.400;2023-03-14T08:03:35;95637.75;;;11.62;40.30
32197;BME280;18697;42.770;23.400;2023-03-14T08:06:00;95630.72;;;11.42;38.76
32197;BME280;18697;42.770;23.400;2023-03-14T08:08:26;95630.44;;;11.73;38.49
32197;BME280;18697;42.770;23.400;2023-03-14T08:10:51;95634.34;;;11.25;39.59
32197;BME280;18697;42.770;23.400;2023-03-14T08:13:16;95627.75;;;11.55;38.88
32197;BME280;18697;42.770;23.400;2023-03-14T08:15:41;95631.13;;;11.92;38.98
32197;BME280;18697;42.770;23.400;2023-03-14T08:18:07;95613.88;;;12.03;39.46
32197;BME280;18697;42.770;23.400;2023-03-14T08:20:32;95626.97;;;12.35;37.95
32197;BME280;18697;42.770;23.400;2023-03-14T08:22:59;95623.41;;;12.88;37.33
32197;BME280;18697;42.770;23.400;2023-03-14T08:25:25;95623.94;;;13.31;36.89
32197;BME280;18697;42.770;23.400;2023-03-14T08:27:51;95629.94;;;12.85;34.84
32197;BME280;18697;42.770;23.400;2023-03-14T08:30:18;95631.22;;;13.13;34.47
32197;BME280;18697;42.770;23.400;2023-03-14T08:32:44;95619.69;;;13.35;34.47
32197;BME280;18697;42.770;23.400;2023-03-14T08:35:10;95618.09;;;13.64;34.69
32197;BME280;18697;42.770;23.400;2023-03-14T08:37:36;95614.38;;;13.87;33.57
32197;BME280;18697;42.770;23.400;2023-03-14T08:40:03;95617.44;;;13.89;35.19
32197;BME280;18697;42.770;23.400;2023-03-14T08:42:39;95605.19;;;14.01;34.64
32197;BME280;18697;42.770;23.400;2023-03-14T08:45:05;95603.94;;;14.02;34.68
32197;BME280;18697;42.770;23.400;2023-03-14T08:47:32;95600.94;;;13.36;34.36
32197;BME280;18697;42.770;23.400;2023-03-14T08:49:57;95591.06;;;12.37;36.66
32197;BME280;18697;42.770;23.400;2023-03-14T08:52:22;95583.97;;;13.39;35.31
32197;BME280;18697;42.770;23.400;2023-03-14T08:54:48;95579.06;;;13.84;33.85
32197;BME280;18697;42.770;23.400;2023-03-14T08:57:13;95574.72;;;14.24;33.78
32197;BME280;18697;42.770;23.400;2023-03-14T08:59:38;95571.38;;;13.79;33.37
32197;BME280;18697;42.770;23.400;2023-03-14T09:02:05;95565.03;;;13.78;34.63
32197;BME280;18697;42.770;23.400;2023-03-14T09:04:31;95562.63;;;13.71;34.77
32197;BME280;18697;42.770;23.400;2023-03-14T09:06:57;95563.06;;;13.85;34.92
32197;BME280;18697;42.770;23.400;2023-03-14T09:09:26;95557.22;;;14.03;33.88
32197;BME280;18697;42.770;23.400;2023-03-14T09:11:55;95559.38;;;13.93;34.00
32197;BME280;18697;42.770;23.400;2023-03-14T09:14:21;95555.31;;;14.14;34.01
32197;BME280;18697;42.770;23.400;2023-03-14T09:16:47;95554.50;;;14.08;33.67
32197;BME280;18697;42.770;23.400;2023-03-14T09:19:12;95545.88;;;14.12;33.42
32197;BME280;18697;42.770;23.400;2023-03-14T09:21:37;95535.91;;;14.26;33.77
32197;BME280;18697;42.770;23.400;2023-03-14T09:24:04;95535.78;;;13.74;33.99
32197;BME280;18697;42.770;23.400;2023-03-14T09:26:30;95527.84;;;13.87;33.84
32197;BME280;18697;42.770;23.400;2023-03-14T09:28:55;95521.34;;;13.75;34.40
32197;BME280;18697;42.770;23.400;2023-03-14T09:31:20;95529.34;;;13.68;34.12
32197;BME280;18697;42.770;23.400;2023-03-14T09:33:45;95528.34;;;13.51;33.74
32197;BME280;18697;42.770;23.400;2023-03-14T09:36:11;95506.16;;;13.41;35.43
32197;BME280;18697;42.770;23.400;2023-03-14T09:38:36;95512.00;;;13.43;34.50
32197;BME280;18697;42.770;23.400;2023-03-14T09:43:42;95493.88;;;13.33;35.11
32197;BME280;18697;42.770;23.400;2023-03-14T09:46:09;95486.72;;;13.67;35.39
32197;BME280;18697;42.770;23.400;2023-03-14T09:48:36;95486.09;;;13.58;34.86
32197;BME280;18697;42.770;23.400;2023-03-14T09:51:05;95473.03;;;13.49;34.67
32197;BME280;18697;42.770;23.400;2023-03-14T09:53:44;95467.81;;;13.57;34.58
32197;BME280;18697;42.770;23.400;2023-03-14T09:56:18;95474.38;;;13.74;34.63
32197;BME280;18697;42.770;23.400;2023-03-14T09:58:48;95460.81;;;13.46;34.36
32197;BME280;18697;42.770;23.400;2023-03-14T10:01:19;95455.66;;;13.60;34.96
32197;BME280;18697;42.770;23.400;2023-03-14T10:03:47;95453.31;;;13.73;34.24
32197;BME280;18697;42.770;23.400;2023-03-14T10:06:14;95447.56;;;14.02;34.94
32197;BME280;18697;42.770;23.400;2023-03-14T10:08:43;95441.00;;;14.05;33.93
32197;BME280;18697;42.770;23.400;2023-03-14T10:11:16;95429.97;;;14.22;33.88
32197;BME280;18697;42.770;23.400;2023-03-14T10:16:28;95425.66;;;14.47;32.85
32197;BME280;18697;42.770;23.400;2023-03-14T10:19:01;95418.78;;;14.74;33.00
32197;BME280;18697;42.770;23.400;2023-03-14T10:21:31;95422.47;;;14.97;32.92
32197;BME280;18697;42.770;23.400;2023-03-14T10:24:21;95413.97;;;15.17;32.71
32197;BME280;18697;42.770;23.400;2023-03-14T10:26:48;95392.03;;;15.53;32.70
32197;BME280;18697;42.770;23.400;2023-03-14T10:29:15;95406.84;;;15.70;31.79
32197;BME280;18697;42.770;23.400;2023-03-14T10:34:28;95379.09;;;15.66;32.31
32197;BME280;18697;42.770;23.400;2023-03-14T10:36:59;95375.88;;;15.96;32.08
32197;BME280;18697;42.770;23.400;2023-03-14T10:42:14;95376.63;;;15.91;30.94
32197;BME280;18697;42.770;23.400;2023-03-14T10:44:42;95368.78;;;16.06;31.41
32197;BME280;18697;42.770;23.400;2023-03-14T10:47:18;95354.75;;;15.95;31.40
32197;BME280;18697;42.770;23.400;2023-03-14T10:49:45;95343.06;;;16.47;31.44
32197;BME280;18697;42.770;23.400;2023-03-14T10:52:21;95336.44;;;16.50;31.63
32197;BME280;18697;42.770;23.400;2023-03-14T10:57:20;95314.31;;;16.24;32.54
32197;BME280;18697;42.770;23.400;2023-03-14T10:59:46;95310.91;;;15.69;31.76
32197;BME280;18697;42.770;23.400;2023-03-14T11:05:12;95291.59;;;15.77;31.77
32197;BME280;18697;42.770;23.400;2023-03-14T11:07:44;95299.75;;;15.86;31.26
32197;BME280;18697;42.770;23.400;2023-03-14T11:15:49;95274.00;;;16.77;30.49
32197;BME280;18697;42.770;23.400;2023-03-14T11:18:43;95275.47;;;17.00;30.34
32197;BME280;18697;42.770;23.400;2023-03-14T11:28:59;95242.00;;;17.60;29.65
32197;BME280;18697;42.770;23.400;2023-03-14T11:31:29;95239.19;;;17.60;28.96
32197;BME280;18697;42.770;23.400;2023-03-14T11:34:01;95238.78;;;17.39;29.71
32197;BME280;18697;42.770;23.400;2023-03-14T11:36:46;95220.91;;;17.84;29.45
32197;BME280;18697;42.770;23.400;2023-03-14T11:39:15;95227.72;;;17.94;28.39
32197;BME280;18697;42.770;23.400;2023-03-14T11:41:44;95214.81;;;18.39;28.67
32197;BME280;18697;42.770;23.400;2023-03-14T11:47:06;95217.53;;;18.51;28.41
32197;BME280;18697;42.770;23.400;2023-03-14T11:49:58;95208.59;;;17.92;27.70
32197;BME280;18697;42.770;23.400;2023-03-14T11:52:40;95204.53;;;17.88;28.03
32197;BME280;18697;42.770;23.400;2023-03-14T11:57:39;95182.25;;;17.95;28.57
32197;BME280;18697;42.770;23.400;2023-03-14T12:10:45;95152.69;;;17.89;28.71
32197;BME280;18697;42.770;23.400;2023-03-14T12:13:13;95157.72;;;17.96;28.15
32197;BME280;18697;42.770;23.400;2023-03-14T12:15:41;95133.41;;;18.28;28.08
32197;BME280;18697;42.770;23.400;2023-03-14T12:18:31;95134.91;;;19.16;27.61
32197;BME280;18697;42.770;23.400;2023-03-14T12:21:01;95134.53;;;18.87;27.88
32197;BME280;18697;42.770;23.400;2023-03-14T12:23:28;95138.25;;;18.77;26.70
32197;BME280;18697;42.770;23.400;2023-03-14T12:26:15;95126.94;;;19.01;27.23
32197;BME280;18697;42.770;23.400;2023-03-14T12:29:30;95120.47;;;18.87;26.91
32197;BME280;18697;42.770;23.400;2023-03-14T12:32:06;95126.38;;;18.65;26.99
32197;BME280;18697;42.770;23.400;2023-03-14T12:34:42;95114.84;;;18.44;27.04
32197;BME280;18697;42.770;23.400;2023-03-14T12:39:40;95107.06;;;18.75;27.20
32197;BME280;18697;42.770;23.400;2023-03-14T12:44:46;95099.44;;;18.51;26.21
32197;BME280;18697;42.770;23.400;2023-03-14T12:47:42;95103.81;;;18.46;26.58
32197;BME280;18697;42.770;23.400;2023-03-14T12:50:24;95097.16;;;18.25;26.66
32197;BME280;18697;42.770;23.400;2023-03-14T12:55:29;95079.72;;;18.32;26.75
32197;BME280;18697;42.770;23.400;2023-03-14T13:00:55;95070.25;;;18.54;26.27
32197;BME280;18697;42.770;23.400;2023-03-14T13:03:25;95069.81;;;18.68;26.14
32197;BME280;18697;42.770;23.400;2023-03-14T13:05:58;95056.72;;;18.71;27.02
32197;BME280;18697;42.770;23.400;2023-03-14T13:08:45;95055.19;;;18.51;27.10
32197;BME280;18697;42.770;23.400;2023-03-14T13:11:16;95050.66;;;18.24;26.09
32197;BME280;18697;42.770;23.400;2023-03-14T13:13:48;95056.69;;;17.85;26.52
32197;BME280;18697;42.770;23.400;2023-03-14T13:16:19;95043.84;;;17.70;26.84
32197;BME280;18697;42.770;23.400;2023-03-14T13:18:47;95035.22;;;17.63;27.25
32197;BME280;18697;42.770;23.400;2023-03-14T13:21:18;95022.84;;;17.47;27.73
32197;BME280;18697;42.770;23.400;2023-03-14T13:24:07;95033.59;;;17.43;26.82
32197;BME280;18697;42.770;23.400;2023-03-14T13:26:44;95021.50;;;17.54;27.29
32197;BME280;18697;42.770;23.400;2023-03-14T13:29:19;95012.50;;;17.61;27.73
32197;BME280;18697;42.770;23.400;2023-03-14T13:31:45;95001.75;;;17.89;27.38
32197;BME280;18697;42.770;23.400;2023-03-14T13:34:11;95007.88;;;17.69;26.55
32197;BME280;18697;42.770;23.400;2023-03-14T13:36:37;94995.47;;;17.53;27.86
32197;BME280;18697;42.770;23.400;2023-03-14T13:39:39;94999.38;;;17.45;27.24
32197;BME280;18697;42.770;23.400;2023-03-14T13:41:59;94980.91;;;17.30;28.13
32197;BME280;18697;42.770;23.400;2023-03-14T13:44:34;94982.94;;;17.30;27.05
32197;BME280;18697;42.770;23.400;2023-03-14T13:47:02;94976.03;;;17.31;27.31
32197;BME280;18697;42.770;23.400;2023-03-14T13:49:30;94966.03;;;17.35;27.55
32197;BME280;18697;42.770;23.400;2023-03-14T13:51:58;94959.56;;;17.46;27.95
32197;BME280;18697;42.770;23.400;2023-03-14T13:54:26;94963.72;;;17.39;27.07
32197;BME280;18697;42.770;23.400;2023-03-14T13:57:03;94967.97;;;17.22;26.81
32197;BME280;18697;42.770;23.400;2023-03-14T13:59:31;94960.44;;;17.35;27.93
32197;BME280;18697;42.770;23.400;2023-03-14T14:01:59;94951.72;;;17.39;27.23
32197;BME280;18697;42.770;23.400;2023-03-14T14:04:26;94940.31;;;17.31;27.89